createdAt,value
2019-04-22T00:01:50.262Z,13.40
2019-04-22T00:04:32.292Z,13.30
2019-04-22T00:07:12.502Z,13.30
2019-04-22T00:09:46.161Z,13.40
2019-04-22T00:12:22.345Z,13.40
2019-04-22T00:14:42.074Z,13.40
2019-04-22T00:17:26.273Z,13.40
2019-04-22T00:19:51.753Z,13.30
2019-04-22T00:22:22.262Z,13.20
2019-04-22T00:24:54.737Z,13.30
2019-04-22T00:27:31.607Z,13.30
2019-04-22T00:32:24.329Z,13.00
2019-04-22T00:34:59.307Z,13.00
2019-04-22T00:37:40.161Z,12.90
2019-04-22T00:39:57.831Z,12.80
2019-04-22T00:42:38.837Z,12.70
2019-04-22T00:45:06.323Z,12.70
2019-04-22T00:47:32.490Z,12.70
2019-04-22T00:52:33.854Z,12.80
2019-04-22T00:57:42.497Z,12.70
2019-04-22T01:00:11.879Z,12.70
2019-04-22T01:02:41.636Z,12.60
2019-04-22T01:05:16.051Z,12.70
2019-04-22T01:07:36.876Z,12.70
2019-04-22T01:10:13.016Z,12.80
2019-04-22T01:12:44.099Z,13.00
2019-04-22T01:15:17.468Z,13.10
2019-04-22T01:17:44.757Z,13.30
2019-04-22T01:20:38.754Z,13.30
2019-04-22T01:22:46.675Z,13.20
2019-04-22T01:25:14.403Z,13.20
2019-04-22T01:27:39.230Z,13.20
2019-04-22T01:30:07.187Z,13.10
2019-04-22T01:32:32.782Z,13.00
2019-04-22T01:35:09.804Z,12.90
2019-04-22T01:37:45.818Z,12.80
2019-04-22T01:40:23.812Z,12.60
2019-04-22T01:42:56.025Z,12.60
2019-04-22T01:45:26.749Z,12.60
2019-04-22T01:48:00.547Z,12.40
2019-04-22T01:50:27.771Z,12.40
2019-04-22T01:52:58.935Z,12.40
2019-04-22T01:57:53.599Z,12.20
2019-04-22T02:00:25.508Z,12.20
2019-04-22T02:02:59.160Z,12.20
2019-04-22T02:05:31.441Z,12.10
2019-04-22T02:08:08.214Z,12.00
2019-04-22T02:10:39.245Z,12.10
2019-04-22T02:13:04.509Z,12.00
2019-04-22T02:15:34.592Z,11.90
2019-04-22T02:18:10.738Z,11.80
2019-04-22T02:20:41.038Z,11.80
2019-04-22T02:23:40.801Z,11.80
2019-04-22T02:25:56.476Z,11.90
2019-04-22T02:28:35.628Z,11.90
2019-04-22T02:33:51.336Z,11.90
2019-04-22T02:38:51.318Z,12.00
2019-04-22T02:41:16.086Z,12.00
2019-04-22T02:43:43.579Z,12.00
2019-04-22T02:48:53.790Z,12.10
2019-04-22T02:51:12.563Z,12.10
2019-04-22T03:01:13.559Z,12.10
2019-04-22T03:03:50.555Z,12.10
2019-04-22T03:06:33.519Z,12.00
2019-04-22T03:08:51.624Z,12.00
2019-04-22T03:16:29.440Z,11.90
2019-04-22T03:19:02.380Z,11.90
2019-04-22T03:23:55.662Z,11.60
2019-04-22T03:31:57.895Z,11.50
2019-04-22T03:37:05.160Z,11.40
2019-04-22T03:39:15.097Z,11.30
2019-04-22T03:46:42.437Z,11.10
2019-04-22T03:49:28.333Z,11.00
2019-04-22T03:51:45.763Z,11.00
2019-04-22T03:54:11.082Z,10.90
2019-04-22T03:57:07.048Z,10.90
2019-04-22T03:59:17.834Z,10.80
2019-04-22T04:01:52.945Z,10.80
2019-04-22T04:06:52.525Z,10.70
2019-04-22T04:09:19.008Z,10.70
2019-04-22T04:11:52.522Z,10.60
2019-04-22T04:14:18.124Z,10.60
2019-04-22T04:16:49.338Z,10.50
2019-04-22T04:19:19.654Z,10.50
2019-04-22T04:21:44.244Z,10.40
2019-04-22T04:26:54.963Z,10.30
2019-04-22T04:34:28.597Z,10.00
2019-04-22T04:37:03.423Z,10.00
2019-04-22T04:39:18.738Z,10.00
2019-04-22T04:44:23.456Z,10.00
2019-04-22T04:49:24.532Z,10.00
2019-04-22T04:54:31.724Z,10.00
2019-04-22T04:56:51.475Z,9.90
2019-04-22T04:59:50.830Z,9.90
2019-04-22T05:02:09.528Z,9.90
2019-04-22T05:09:26.133Z,9.90
2019-04-22T05:14:24.299Z,9.80
2019-04-22T05:17:18.239Z,9.80
2019-04-22T05:19:29.520Z,9.80
2019-04-22T05:21:58.080Z,9.70
2019-04-22T05:24:31.377Z,9.60
2019-04-22T05:27:11.283Z,9.60
2019-04-22T05:30:00.159Z,9.60
2019-04-22T05:31:56.584Z,9.60
2019-04-22T05:34:28.142Z,9.60
2019-04-22T05:37:01.268Z,9.60
2019-04-22T05:39:28.497Z,9.70
2019-04-22T05:44:39.501Z,9.70
2019-04-22T05:47:08.369Z,9.70
2019-04-22T05:49:34.745Z,9.70
2019-04-22T05:52:09.610Z,9.70
2019-04-22T05:54:38.734Z,9.70
2019-04-22T05:57:14.379Z,9.90
2019-04-22T05:59:45.750Z,10.00
2019-04-22T06:04:55.784Z,10.10
2019-04-22T06:07:13.426Z,10.10
2019-04-22T06:09:49.882Z,10.30
2019-04-22T06:12:17.383Z,10.40
2019-04-22T06:14:55.654Z,10.50
2019-04-22T06:17:24.718Z,10.70
2019-04-22T06:19:58.905Z,10.80
2019-04-22T06:25:00.891Z,11.00
2019-04-22T06:27:37.184Z,11.10
2019-04-22T06:30:04.468Z,11.20
2019-04-22T06:35:15.355Z,11.40
2019-04-22T06:37:36.661Z,11.60
2019-04-22T06:40:10.098Z,11.70
2019-04-22T06:42:36.673Z,11.80
2019-04-22T06:45:10.795Z,11.90
2019-04-22T06:50:07.669Z,12.10
2019-04-22T06:52:38.189Z,12.40
2019-04-22T06:55:16.596Z,12.50
2019-04-22T06:57:36.361Z,12.70
2019-04-22T07:00:13.604Z,12.80
2019-04-22T07:02:56.378Z,12.90
2019-04-22T07:05:15.917Z,13.10
2019-04-22T07:07:45.558Z,13.20
2019-04-22T07:10:22.571Z,13.50
2019-04-22T07:12:41.794Z,13.40
2019-04-22T07:15:24.294Z,13.60
2019-04-22T07:17:49.300Z,13.70
2019-04-22T07:20:17.983Z,13.70
2019-04-22T07:22:45.171Z,13.90
2019-04-22T07:25:20.319Z,14.10
2019-04-22T07:27:50.590Z,14.30
2019-04-22T07:30:25.340Z,14.40
2019-04-22T07:35:22.840Z,14.80
2019-04-22T07:37:51.138Z,15.10
2019-04-22T07:40:25.171Z,15.40
2019-04-22T07:42:51.548Z,15.60
2019-04-22T07:45:25.120Z,15.60
2019-04-22T07:48:02.767Z,15.90
2019-04-22T07:50:38.826Z,16.00
2019-04-22T07:52:51.454Z,16.20
2019-04-22T07:55:24.432Z,16.50
2019-04-22T07:57:59.402Z,16.60
2019-04-22T08:00:31.180Z,16.80
2019-04-22T08:02:59.110Z,16.90
2019-04-22T08:05:37.847Z,17.20
2019-04-22T08:08:10.948Z,17.30
2019-04-22T08:12:59.326Z,17.30
2019-04-22T08:15:40.141Z,17.60
2019-04-22T08:18:22.135Z,17.80
2019-04-22T08:23:13.784Z,18.20
2019-04-22T08:25:38.826Z,18.10
2019-04-22T08:28:13.261Z,17.90
2019-04-22T08:30:47.440Z,18.10
2019-04-22T08:33:15.847Z,18.10
2019-04-22T08:36:00.000Z,18.20
2019-04-22T08:38:17.653Z,18.50
2019-04-22T08:40:50.143Z,18.60
2019-04-22T08:43:28.589Z,18.90
2019-04-22T08:45:51.075Z,19.10
2019-04-22T08:48:24.962Z,19.10
2019-04-22T08:50:58.593Z,19.50
2019-04-22T08:53:28.625Z,19.70
2019-04-22T08:55:56.645Z,19.70
2019-04-22T09:00:57.073Z,19.70
2019-04-22T09:03:27.244Z,19.80
2019-04-22T09:06:06.408Z,19.80
2019-04-22T09:08:26.335Z,19.80
2019-04-22T09:10:58.520Z,20.00
2019-04-22T09:13:30.206Z,20.10
2019-04-22T09:15:55.386Z,20.30
2019-04-22T09:18:34.850Z,20.70
2019-04-22T09:21:09.860Z,21.10
2019-04-22T09:23:37.235Z,21.10
2019-04-22T09:26:01.345Z,21.00
2019-04-22T09:28:32.665Z,21.00
2019-04-22T09:33:32.019Z,20.80
2019-04-22T09:36:12.452Z,20.90
2019-04-22T09:38:38.183Z,21.00
2019-04-22T09:41:05.436Z,21.00
2019-04-22T09:43:40.646Z,21.40
2019-04-22T09:46:08.924Z,21.30
2019-04-22T09:48:43.924Z,21.20
2019-04-22T09:51:08.573Z,21.50
2019-04-22T09:53:47.188Z,21.50
2019-04-22T09:56:10.078Z,21.80
2019-04-22T09:58:44.838Z,22.20
2019-04-22T10:01:24.290Z,22.00
2019-04-22T10:03:51.662Z,22.00
2019-04-22T10:09:02.181Z,22.30
2019-04-22T10:11:31.043Z,22.50
2019-04-22T10:13:56.368Z,22.30
2019-04-22T10:16:27.487Z,22.20
2019-04-22T10:18:52.067Z,22.30
2019-04-22T10:21:35.568Z,22.40
2019-04-22T10:23:59.861Z,22.40
2019-04-22T10:26:31.817Z,22.40
2019-04-22T10:29:00.492Z,22.20
2019-04-22T10:31:34.487Z,22.30
2019-04-22T10:33:49.485Z,22.30
2019-04-22T10:36:03.605Z,22.50
2019-04-22T10:38:34.494Z,22.60
2019-04-22T10:41:04.856Z,22.90
2019-04-22T10:43:34.964Z,22.90
2019-04-22T10:46:04.253Z,23.00
2019-04-22T10:48:34.520Z,23.10
2019-04-22T10:51:04.605Z,23.10
2019-04-22T10:53:33.762Z,23.10
2019-04-22T10:56:03.208Z,23.40
2019-04-22T10:58:32.891Z,23.30
2019-04-22T11:01:03.273Z,23.10
2019-04-22T11:03:33.232Z,23.30
2019-04-22T11:06:03.301Z,23.30
2019-04-22T11:08:42.425Z,23.40
2019-04-22T11:11:18.935Z,23.60
2019-04-22T11:13:36.224Z,23.70
2019-04-22T11:16:05.625Z,23.60
2019-04-22T11:18:35.781Z,23.70
2019-04-22T11:21:05.433Z,23.60
2019-04-22T11:23:34.587Z,23.70
2019-04-22T11:26:04.139Z,23.50
2019-04-22T11:28:35.894Z,23.70
2019-04-22T11:31:06.222Z,23.60
2019-04-22T11:33:36.443Z,23.70
2019-04-22T11:36:06.174Z,23.70
2019-04-22T11:38:39.011Z,23.40
2019-04-22T11:41:07.246Z,23.50
2019-04-22T11:43:37.137Z,23.50
2019-04-22T11:46:07.313Z,23.60
2019-04-22T11:48:36.403Z,23.60
2019-04-22T11:51:06.208Z,23.60
2019-04-22T11:53:36.577Z,23.70
2019-04-22T11:56:06.856Z,24.00
2019-04-22T11:58:37.264Z,23.90
2019-04-22T12:01:08.541Z,24.10
2019-04-22T12:03:37.976Z,24.10
2019-04-22T12:06:08.384Z,24.20
2019-04-22T12:08:37.585Z,24.30
2019-04-22T12:11:07.989Z,24.10
2019-04-22T12:13:38.054Z,24.20
2019-04-22T12:16:07.746Z,23.80
2019-04-22T12:18:37.348Z,23.80
2019-04-22T12:21:06.583Z,23.90
2019-04-22T12:23:36.970Z,23.70
2019-04-22T12:26:11.695Z,24.10
2019-04-22T12:28:37.284Z,24.30
2019-04-22T12:31:06.397Z,24.10
2019-04-22T12:33:35.443Z,24.20
2019-04-22T12:36:04.660Z,24.10
2019-04-22T12:38:35.661Z,23.90
2019-04-22T12:41:09.618Z,24.10
2019-04-22T12:43:35.625Z,24.00
2019-04-22T12:46:05.883Z,24.10
2019-04-22T12:48:35.288Z,24.00
2019-04-22T12:51:05.022Z,23.90
2019-04-22T12:53:34.089Z,23.80
2019-04-22T12:56:03.073Z,23.60
2019-04-22T12:58:32.076Z,23.70
2019-04-22T13:01:01.266Z,23.70
2019-04-22T13:03:31.972Z,23.50
2019-04-22T13:06:03.730Z,23.30
2019-04-22T13:08:31.814Z,23.30
2019-04-22T13:11:06.617Z,23.40
2019-04-22T13:13:31.478Z,23.00
2019-04-22T13:16:00.505Z,23.20
2019-04-22T13:18:38.091Z,22.90
2019-04-22T13:21:02.055Z,23.00
2019-04-22T13:23:31.750Z,22.60
2019-04-22T13:26:01.001Z,22.60
2019-04-22T13:28:31.371Z,22.40
2019-04-22T13:31:01.954Z,22.50
2019-04-22T13:33:32.714Z,22.40
2019-04-22T13:36:01.982Z,22.40
2019-04-22T13:38:31.182Z,22.50
2019-04-22T13:41:14.058Z,22.20
2019-04-22T13:43:31.268Z,22.10
2019-04-22T13:46:01.703Z,22.30
2019-04-22T13:48:52.747Z,22.40
2019-04-22T13:51:33.253Z,22.40
2019-04-22T13:54:30.938Z,22.30
2019-04-22T13:56:23.756Z,22.00
2019-04-22T13:58:49.871Z,21.90
2019-04-22T14:01:06.971Z,21.80
2019-04-22T14:03:44.732Z,21.70
2019-04-22T14:06:14.780Z,21.70
2019-04-22T14:08:45.094Z,21.90
2019-04-22T14:11:25.300Z,22.00
2019-04-22T14:13:45.964Z,21.90
2019-04-22T14:16:15.418Z,22.00
2019-04-22T14:18:46.008Z,21.80
2019-04-22T14:21:16.690Z,22.00
2019-04-22T14:23:46.753Z,21.90
2019-04-22T14:26:17.346Z,22.10
2019-04-22T14:28:47.979Z,22.00
2019-04-22T14:31:18.167Z,21.70
2019-04-22T14:33:51.183Z,21.80
2019-04-22T14:36:19.105Z,21.50
2019-04-22T14:38:48.245Z,21.20
2019-04-22T14:41:36.275Z,21.00
2019-04-22T14:44:52.748Z,21.50
2019-04-22T14:46:52.964Z,21.60
2019-04-22T14:49:19.481Z,21.60
2019-04-22T14:51:42.415Z,21.60
2019-04-22T14:54:10.065Z,21.60
2019-04-22T14:56:22.414Z,21.50
2019-04-22T14:58:53.027Z,21.60
2019-04-22T15:01:22.200Z,21.20
2019-04-22T15:03:52.421Z,21.10
2019-04-22T15:06:22.289Z,21.10
2019-04-22T15:08:54.414Z,20.80
2019-04-22T15:11:23.245Z,20.80
2019-04-22T15:13:53.555Z,20.80
2019-04-22T15:16:25.651Z,20.70
2019-04-22T15:18:59.965Z,20.70
2019-04-22T15:21:32.455Z,20.70
2019-04-22T15:24:04.515Z,20.60
2019-04-22T15:26:34.632Z,20.60
2019-04-22T15:29:05.162Z,20.40
2019-04-22T15:31:35.377Z,20.30
2019-04-22T15:34:04.586Z,20.20
2019-04-22T15:36:33.510Z,20.30
2019-04-22T15:39:03.345Z,20.10
2019-04-22T15:41:32.877Z,20.00
2019-04-22T15:44:02.046Z,19.90
2019-04-22T15:46:32.073Z,19.80
2019-04-22T15:49:02.135Z,19.80
2019-04-22T15:51:32.345Z,19.70
2019-04-22T15:54:03.467Z,19.80
2019-04-22T15:56:33.016Z,19.60
2019-04-22T15:59:09.869Z,19.80
2019-04-22T16:01:37.237Z,19.70
2019-04-22T16:04:05.044Z,19.50
2019-04-22T16:06:34.715Z,19.40
2019-04-22T16:09:06.783Z,19.20
2019-04-22T16:11:36.159Z,19.10
2019-04-22T16:14:06.356Z,18.80
2019-04-22T16:16:37.119Z,18.60
2019-04-22T16:19:06.925Z,18.50
2019-04-22T16:21:42.390Z,18.40
2019-04-22T16:24:18.196Z,18.30
2019-04-22T16:26:48.816Z,18.20
2019-04-22T16:29:19.094Z,18.00
2019-04-22T16:31:49.467Z,18.00
2019-04-22T16:34:19.602Z,17.70
2019-04-22T16:36:49.059Z,17.70
2019-04-22T16:39:18.511Z,17.70
2019-04-22T16:41:48.635Z,17.70
2019-04-22T16:44:18.604Z,17.50
2019-04-22T16:46:47.787Z,17.50
2019-04-22T16:49:16.786Z,17.30
2019-04-22T16:51:47.735Z,17.10
2019-04-22T16:54:17.997Z,17.00
2019-04-22T16:56:48.011Z,16.80
2019-04-22T16:59:17.211Z,16.70
2019-04-22T17:01:48.500Z,16.50
2019-04-22T17:04:32.454Z,16.50
2019-04-22T17:07:01.918Z,16.40
2019-04-22T17:09:32.067Z,16.30
2019-04-22T17:12:01.918Z,16.30
2019-04-22T17:14:36.039Z,16.10
2019-04-22T17:17:02.587Z,15.90
2019-04-22T17:19:33.302Z,15.80
2019-04-22T17:22:03.696Z,15.90
2019-04-22T17:24:33.474Z,15.80
2019-04-22T17:27:04.384Z,15.70
2019-04-22T17:29:34.757Z,15.70
2019-04-22T17:32:13.098Z,15.60
2019-04-22T17:34:37.308Z,15.60
2019-04-22T17:37:12.693Z,15.60
2019-04-22T17:39:47.813Z,15.60
2019-04-22T17:42:29.523Z,15.50
2019-04-22T17:45:22.277Z,15.50
2019-04-22T17:48:09.341Z,15.40
2019-04-22T17:50:44.444Z,15.30
2019-04-22T17:53:16.495Z,15.30
2019-04-22T17:55:49.170Z,15.20
2019-04-22T17:58:20.722Z,15.10
2019-04-22T18:00:39.046Z,15.10
2019-04-22T18:03:07.093Z,15.00
2019-04-22T18:05:37.343Z,14.90
2019-04-22T18:08:20.461Z,14.90
2019-04-22T18:10:47.379Z,14.80
2019-04-22T18:13:27.844Z,14.70
2019-04-22T18:15:51.535Z,14.60
2019-04-22T18:18:28.213Z,14.50
2019-04-22T18:20:45.751Z,14.40
2019-04-22T18:23:09.685Z,14.40
2019-04-22T18:25:57.269Z,14.20
2019-04-22T18:28:31.579Z,14.20
2019-04-22T18:30:52.951Z,14.10
2019-04-22T18:33:31.957Z,14.00
2019-04-22T18:35:54.237Z,13.80
2019-04-22T18:38:39.719Z,13.70
2019-04-22T18:41:02.348Z,13.60
2019-04-22T18:43:33.998Z,13.50
2019-04-22T18:46:05.392Z,13.40
2019-04-22T18:48:29.746Z,13.30
2019-04-22T18:51:13.374Z,13.40
2019-04-22T18:53:59.072Z,13.40
2019-04-22T18:56:25.358Z,13.20
2019-04-22T18:58:46.369Z,13.10
2019-04-22T19:01:05.908Z,13.00
2019-04-22T19:03:46.737Z,12.90
2019-04-22T19:06:34.086Z,12.80
2019-04-22T19:09:03.175Z,12.70
2019-04-22T19:11:29.489Z,12.60
2019-04-22T19:14:07.792Z,12.60
2019-04-22T19:19:20.611Z,12.60
2019-04-22T19:21:32.462Z,12.60
2019-04-22T19:24:00.238Z,12.60
2019-04-22T19:26:46.024Z,12.50
2019-04-22T19:29:03.918Z,12.40
2019-04-22T19:31:39.063Z,12.40
2019-04-22T19:34:03.240Z,12.10
2019-04-22T19:36:45.112Z,12.10
2019-04-22T19:39:01.660Z,12.00
2019-04-22T19:41:55.965Z,12.00
2019-04-22T19:44:08.474Z,11.90
2019-04-22T19:46:35.489Z,11.70
2019-04-22T19:49:13.638Z,11.60
2019-04-22T19:51:49.482Z,11.40
2019-04-22T19:54:09.455Z,11.30
2019-04-22T19:56:33.733Z,11.20
2019-04-22T19:59:09.842Z,11.20
2019-04-22T20:01:41.667Z,10.90
2019-04-22T20:04:31.021Z,10.90
2019-04-22T20:06:53.494Z,10.90
2019-04-22T20:09:33.367Z,10.90
2019-04-22T20:11:57.628Z,10.80
2019-04-22T20:14:33.641Z,10.80
2019-04-22T20:16:54.152Z,10.70
2019-04-22T20:19:39.601Z,10.70
2019-04-22T20:22:03.411Z,10.60
2019-04-22T20:24:18.800Z,10.60
2019-04-22T20:27:02.890Z,10.60
2019-04-22T20:29:40.019Z,10.60
2019-04-22T20:32:05.546Z,10.60
2019-04-22T20:34:40.844Z,10.60
2019-04-22T20:39:44.384Z,10.40
2019-04-22T20:42:22.806Z,10.30
2019-04-22T20:44:39.804Z,10.20
2019-04-22T20:47:10.620Z,10.10
2019-04-22T20:49:44.656Z,10.10
2019-04-22T20:52:20.300Z,10.00
2019-04-22T20:54:40.661Z,10.00
2019-04-22T20:57:09.753Z,10.00
2019-04-22T20:59:44.261Z,9.90
2019-04-22T21:02:07.951Z,9.90
2019-04-22T21:04:38.217Z,9.80
2019-04-22T21:07:09.031Z,9.80
2019-04-22T21:09:43.210Z,9.80
2019-04-22T21:12:13.789Z,9.80
2019-04-22T21:14:52.847Z,9.80
2019-04-22T21:17:18.486Z,9.90
2019-04-22T21:19:54.691Z,9.80
2019-04-22T21:22:20.621Z,9.80
2019-04-22T21:24:48.816Z,9.70
2019-04-22T21:27:42.326Z,9.80
2019-04-22T21:29:47.223Z,9.80
2019-04-22T21:32:23.962Z,9.80
2019-04-22T21:35:03.879Z,9.80
2019-04-22T21:37:30.187Z,9.80
2019-04-22T21:39:46.683Z,9.70
2019-04-22T21:42:18.535Z,9.80
2019-04-22T21:44:51.018Z,9.60
2019-04-22T21:47:30.077Z,9.60
2019-04-22T21:50:18.400Z,9.60
2019-04-22T21:52:28.919Z,9.60
2019-04-22T21:55:07.477Z,9.50
2019-04-22T21:57:35.733Z,9.40
2019-04-22T22:00:04.488Z,9.40
2019-04-22T22:02:41.107Z,9.40
2019-04-22T22:04:58.319Z,9.30
2019-04-22T22:07:21.384Z,9.30
2019-04-22T22:10:04.405Z,9.30
2019-04-22T22:12:39.383Z,9.30
2019-04-22T22:15:07.238Z,9.20
2019-04-22T22:17:38.023Z,9.20
2019-04-22T22:20:03.440Z,9.20
2019-04-22T22:25:11.102Z,9.20
2019-04-22T22:27:40.837Z,9.20
2019-04-22T22:30:31.621Z,9.10
2019-04-22T22:32:45.222Z,9.00
2019-04-22T22:35:16.480Z,9.00
2019-04-22T22:37:43.964Z,8.90
2019-04-22T22:40:00.920Z,8.90
2019-04-22T22:42:33.774Z,8.80
2019-04-22T22:45:05.956Z,8.80
2019-04-22T22:47:39.255Z,8.80
2019-04-22T22:50:16.032Z,8.80
2019-04-22T22:53:04.867Z,8.80
2019-04-22T22:55:16.405Z,8.70
2019-04-22T22:57:50.249Z,8.70
2019-04-22T23:00:15.863Z,8.80
2019-04-22T23:03:03.561Z,8.80
2019-04-22T23:05:28.701Z,8.70
2019-04-22T23:07:55.308Z,8.70
2019-04-22T23:10:17.853Z,8.70
2019-04-22T23:13:00.437Z,8.80
2019-04-22T23:15:21.812Z,8.80
2019-04-22T23:17:34.229Z,8.80
2019-04-22T23:20:04.894Z,8.80
2019-04-22T23:22:50.995Z,8.90
2019-04-22T23:25:27.082Z,8.90
2019-04-22T23:28:01.309Z,9.00
2019-04-22T23:30:44.170Z,9.00
2019-04-22T23:33:26.529Z,9.10
2019-04-22T23:35:56.347Z,9.10
2019-04-22T23:38:35.739Z,9.20
2019-04-22T23:41:03.413Z,9.20
2019-04-22T23:43:34.075Z,9.10
2019-04-22T23:46:05.718Z,9.10
2019-04-22T23:48:31.528Z,9.10
2019-04-22T23:51:09.317Z,9.20
2019-04-22T23:56:12.204Z,9.30
